createdAt,value
2023-03-23T15:59:44.843Z,82.20
2023-03-23T16:02:21.167Z,81.60
2023-03-23T16:04:49.149Z,81.20
2023-03-23T16:07:16.630Z,82.50
2023-03-23T16:09:44.709Z,81.00
2023-03-23T16:12:13.467Z,78.00
2023-03-23T16:14:41.055Z,78.50
2023-03-23T16:17:11.203Z,78.90
2023-03-23T16:19:38.452Z,77.90
2023-03-23T16:22:05.824Z,79.20
2023-03-23T16:24:33.022Z,77.70
2023-03-23T16:27:00.395Z,85.90
2023-03-23T16:29:46.852Z,90.00
2023-03-23T16:32:15.051Z,92.10
2023-03-23T16:34:42.402Z,92.10
2023-03-23T16:37:12.078Z,90.30
2023-03-23T16:39:39.474Z,92.00
2023-03-23T16:42:06.746Z,84.70
2023-03-23T16:44:33.975Z,91.70
2023-03-23T16:47:01.210Z,92.00
2023-03-23T16:49:28.449Z,90.20
2023-03-23T16:51:56.323Z,83.20
2023-03-23T16:54:23.906Z,87.30
2023-03-23T16:56:51.250Z,89.60
2023-03-23T16:59:18.546Z,90.60
2023-03-23T17:01:45.858Z,91.50
2023-03-23T17:04:13.233Z,91.30
2023-03-23T17:06:40.488Z,91.70
2023-03-23T17:09:07.887Z,92.40
2023-03-23T17:11:35.270Z,92.50
2023-03-23T17:14:02.680Z,92.40
2023-03-23T17:16:30.041Z,92.30
2023-03-23T17:18:57.302Z,90.50
2023-03-23T17:21:26.085Z,87.90
2023-03-23T17:23:53.825Z,91.50
2023-03-23T17:26:21.161Z,91.60
2023-03-23T17:28:48.477Z,94.90
2023-03-23T17:31:16.065Z,94.40
2023-03-23T17:33:43.387Z,95.30
2023-03-23T17:36:10.749Z,94.50
2023-03-23T17:38:38.221Z,96.00
2023-03-23T17:41:07.845Z,96.60
2023-03-23T17:43:36.443Z,95.70
2023-03-23T17:46:03.783Z,96.10
2023-03-23T17:48:31.006Z,97.30
2023-03-23T17:50:59.151Z,97.70
2023-03-23T17:53:27.017Z,96.60
2023-03-23T17:55:54.628Z,97.10
2023-03-23T17:58:22.378Z,96.70
2023-03-23T18:00:49.783Z,96.90
2023-03-23T18:03:17.495Z,97.60
2023-03-23T18:05:45.058Z,97.60
2023-03-23T18:08:12.373Z,97.60
2023-03-23T18:10:40.731Z,97.30
2023-03-23T18:13:08.551Z,97.60
2023-03-23T18:15:37.183Z,97.70
2023-03-23T18:18:05.081Z,98.00
2023-03-23T18:20:32.843Z,99.50
2023-03-23T18:23:00.145Z,99.40
2023-03-23T18:25:27.403Z,99.60
2023-03-23T18:27:54.864Z,99.80
2023-03-23T18:30:22.388Z,99.60
2023-03-23T18:32:49.719Z,99.90
2023-03-23T18:35:17.018Z,99.90
2023-03-23T18:37:44.431Z,99.70
2023-03-23T18:40:12.020Z,99.00
2023-03-23T18:42:39.921Z,99.80
2023-03-23T18:45:07.606Z,99.90
2023-03-23T18:47:35.074Z,99.90
2023-03-23T18:50:02.314Z,99.40
2023-03-23T18:52:31.027Z,99.50
2023-03-23T18:54:58.788Z,98.60
2023-03-23T18:58:15.636Z,99.90
2023-03-23T19:00:43.142Z,99.90
2023-03-23T19:03:10.933Z,99.90
2023-03-23T19:05:39.628Z,99.90
2023-03-23T19:08:08.281Z,99.90
2023-03-23T19:10:39.921Z,96.40
2023-03-23T19:13:07.547Z,95.70
2023-03-23T19:15:37.759Z,94.00
2023-03-23T19:18:05.526Z,93.10
2023-03-23T19:21:06.410Z,96.30
2023-03-23T19:23:20.770Z,97.90
2023-03-23T19:25:48.087Z,94.70
2023-03-23T19:30:49.601Z,95.30
2023-03-23T19:33:17.179Z,94.70
2023-03-23T19:35:48.919Z,94.00
2023-03-23T19:38:17.466Z,93.20
2023-03-23T19:40:55.259Z,92.70
2023-03-23T19:43:23.742Z,92.10
2023-03-23T19:45:51.160Z,92.00
2023-03-23T19:48:18.696Z,92.30
2023-03-23T19:50:49.105Z,92.10
2023-03-23T19:53:18.942Z,96.50
2023-03-23T19:55:46.657Z,97.20
2023-03-23T19:58:14.407Z,98.00
2023-03-23T20:00:41.797Z,98.70
2023-03-23T20:03:09.098Z,99.70
2023-03-23T20:05:36.858Z,99.70
2023-03-23T20:08:04.948Z,98.00
2023-03-23T20:10:34.688Z,96.70
2023-03-23T20:13:02.924Z,95.90
2023-03-23T20:15:30.726Z,96.00
2023-03-23T20:17:58.475Z,99.00
2023-03-23T20:20:26.430Z,99.80
2023-03-23T20:22:55.240Z,99.90
2023-03-23T20:25:25.951Z,99.90
2023-03-23T20:27:55.034Z,99.90
2023-03-23T20:30:22.466Z,99.90
2023-03-23T20:32:51.878Z,99.90
2023-03-23T20:35:22.530Z,99.90
2023-03-23T20:37:52.796Z,98.60
2023-03-23T20:40:23.401Z,99.90
2023-03-23T20:42:52.677Z,99.90
2023-03-23T20:45:20.336Z,99.90
2023-03-23T20:47:47.644Z,99.90
2023-03-23T20:50:15.218Z,99.90
2023-03-23T20:52:42.695Z,99.90
2023-03-23T20:55:10.007Z,99.90
2023-03-23T20:57:40.276Z,99.90
2023-03-23T21:00:09.496Z,99.90
2023-03-23T21:02:36.821Z,99.90
2023-03-23T21:05:05.131Z,99.90
2023-03-23T21:07:32.644Z,99.90
2023-03-23T21:09:59.903Z,99.90
2023-03-23T21:12:27.381Z,99.90
2023-03-23T21:14:54.678Z,99.90
2023-03-23T21:17:21.988Z,99.90
2023-03-23T21:19:50.043Z,99.90
2023-03-23T21:22:18.926Z,99.90
2023-03-23T21:24:52.791Z,99.90
2023-03-23T21:27:20.075Z,99.90
2023-03-23T21:29:48.845Z,98.30
2023-03-23T21:32:16.265Z,99.50
2023-03-23T21:34:46.589Z,98.00
2023-03-23T21:37:15.206Z,97.60
2023-03-23T21:39:42.573Z,97.10
2023-03-23T21:42:09.865Z,97.00
2023-03-23T21:44:39.077Z,96.60
2023-03-23T21:47:06.540Z,96.40
2023-03-23T21:49:33.938Z,96.20
2023-03-23T21:52:02.301Z,96.40
2023-03-23T21:54:30.447Z,96.30
2023-03-23T21:56:58.485Z,96.30
2023-03-23T21:59:26.415Z,96.40
2023-03-23T22:01:54.218Z,96.40
2023-03-23T22:04:21.658Z,99.40
2023-03-23T22:06:49.667Z,97.70
2023-03-23T22:09:17.006Z,97.40
2023-03-23T22:11:44.403Z,97.00
2023-03-23T22:14:11.717Z,96.70
2023-03-23T22:16:39.150Z,96.40
2023-03-23T22:19:06.719Z,96.20
2023-03-23T22:21:34.079Z,97.20
2023-03-23T22:24:01.933Z,96.90
2023-03-23T22:26:29.730Z,98.30
2023-03-23T22:28:57.246Z,98.10
2023-03-23T22:31:27.848Z,98.50
2023-03-23T22:33:56.083Z,97.80
2023-03-23T22:36:24.389Z,98.40
2023-03-23T22:38:52.139Z,98.70
2023-03-23T22:41:22.102Z,99.00
2023-03-23T22:43:49.477Z,98.50
2023-03-23T22:46:17.150Z,99.90
2023-03-23T22:48:44.819Z,99.60
2023-03-23T22:51:12.920Z,99.90
2023-03-23T22:53:40.633Z,99.90
2023-03-23T22:56:08.131Z,99.90
2023-03-23T22:58:35.644Z,99.90
2023-03-23T23:01:07.763Z,99.90
2023-03-23T23:03:35.490Z,99.90
2023-03-23T23:06:03.153Z,99.90
2023-03-23T23:08:31.312Z,99.90
2023-03-23T23:10:59.905Z,99.90
2023-03-23T23:13:27.523Z,99.90
2023-03-23T23:15:56.496Z,99.90
2023-03-23T23:18:25.016Z,99.80
2023-03-23T23:20:53.648Z,99.50
2023-03-23T23:23:21.485Z,99.40
2023-03-23T23:25:49.088Z,99.10
2023-03-23T23:28:16.641Z,99.30
2023-03-23T23:30:44.466Z,99.90
2023-03-23T23:33:12.292Z,99.90
2023-03-23T23:35:40.644Z,99.90
2023-03-23T23:38:09.693Z,99.90
2023-03-23T23:40:36.961Z,99.90
2023-03-23T23:43:04.744Z,99.90
2023-03-23T23:45:32.480Z,99.90
2023-03-23T23:47:59.839Z,99.90
2023-03-23T23:50:27.799Z,99.90
2023-03-23T23:52:55.293Z,99.90
2023-03-23T23:55:22.597Z,99.90
2023-03-23T23:57:50.124Z,99.90
